Willow Hill, Illinois
Current Conditions -  °F | °C
As of 9:55 AM on Thursday 27 Nov 2014 (Local Time) from KRSV Reporting Station
Overcast Overcast  
Wind Chill: 18°   Ceiling: 6000
Heat Index: 27°   Visibility: 7mi
Dew Point: 24°   Wind: 10mph
Humidity: 86%   Direction: 310°NW
Pressure: 30.44"   Gusts: NA
Location:  39°N, 88.02°W
Report Text: KRSV 271555Z AUTO 31009KT 7SM SCT014 OVC060 M03/M05 A3044 RMK AO2 T10261047
Loading
Personal Weather Stations






























Interactive Weather Map New forecast layout! Learn more

10-Day Weather Forecast

Advertisements
Track Severe Weather on mobile